createdAt,value
2023-01-21T00:01:36.979Z,85.4
2023-01-21T00:05:42.605Z,93.9
2023-01-21T00:15:55.364Z,81.9
2023-01-21T00:22:02.424Z,93.1
2023-01-21T00:24:03.899Z,79.2
2023-01-21T00:32:12.475Z,80.9
2023-01-21T00:36:18.124Z,71.8
2023-01-21T00:38:19.553Z,74.6
2023-01-21T00:40:23.714Z,81.1
2023-01-21T00:42:25.177Z,79.6
2023-01-21T00:44:26.638Z,77.1
2023-01-21T00:48:32.305Z,82.4
2023-01-21T00:50:33.688Z,79.5
2023-01-21T00:52:37.852Z,63.8
2023-01-21T00:54:39.313Z,97.3
2023-01-21T00:56:40.760Z,85.1
2023-01-21T00:58:44.975Z,84.9
2023-01-21T01:00:46.364Z,87.1
2023-01-21T01:02:48.000Z,93.6
2023-01-21T01:04:52.005Z,77.2
2023-01-21T01:06:53.438Z,83
2023-01-21T01:10:59.088Z,71.5
2023-01-21T01:15:01.994Z,97.1
2023-01-21T01:19:07.591Z,74.3
2023-01-21T01:21:09.077Z,94.1
2023-01-21T01:26:22.902Z,92
2023-01-21T01:28:24.380Z,75.9
2023-01-21T01:30:25.817Z,90.2
2023-01-21T01:32:29.980Z,77
2023-01-21T01:34:31.427Z,87
2023-01-21T01:36:32.890Z,76.9
2023-01-21T01:43:41.749Z,74.9
2023-01-21T01:45:43.213Z,79.2
2023-01-21T01:47:47.330Z,79.5
2023-01-21T01:51:50.226Z,84.2
2023-01-21T01:53:54.363Z,90.6
2023-01-21T01:55:55.837Z,73.2
2023-01-21T01:57:57.256Z,79.4
2023-01-21T02:00:01.373Z,79.2
2023-01-21T02:02:02.827Z,93
2023-01-21T02:04:04.284Z,94.1
2023-01-21T02:06:08.400Z,78.5
2023-01-21T02:08:09.875Z,85.3
2023-01-21T02:10:11.296Z,90.6
2023-01-21T02:12:15.435Z,93
2023-01-21T02:14:16.884Z,86
2023-01-21T02:20:23.892Z,83.3
2023-01-21T02:22:25.332Z,77.9
2023-01-21T02:24:29.443Z,102
2023-01-21T02:26:30.886Z,84.4
2023-01-21T02:28:32.322Z,93.5
2023-01-21T02:41:33.310Z,102.3
2023-01-21T02:46:44.357Z,74.1
2023-01-21T02:48:45.581Z,80.1
2023-01-21T02:55:55.867Z,85
2023-01-21T02:57:57.257Z,105
2023-01-21T02:59:58.666Z,91.8
2023-01-21T03:02:02.852Z,82.6
2023-01-21T03:04:04.170Z,98.1
2023-01-21T03:06:05.563Z,95.3
2023-01-21T03:08:09.685Z,88.5
2023-01-21T03:10:10.913Z,83
2023-01-21T03:12:12.335Z,82.7
2023-01-21T03:14:16.443Z,103.3
2023-01-21T03:16:17.840Z,99.8
2023-01-21T03:18:19.259Z,114.6
2023-01-21T03:20:23.345Z,114.3
2023-01-21T03:28:31.696Z,88.5
2023-01-21T03:30:33.225Z,103.4
2023-01-21T03:32:37.174Z,97.5
2023-01-21T03:34:38.620Z,110.8
2023-01-21T03:41:45.517Z,94.3
2023-01-21T03:43:46.900Z,90.3
2023-01-21T03:45:48.413Z,93.3
2023-01-21T03:47:52.389Z,109.4
2023-01-21T03:49:53.802Z,100
2023-01-21T03:51:55.218Z,106
2023-01-21T03:53:59.252Z,108.7
2023-01-21T03:56:00.681Z,116.2
2023-01-21T03:58:02.077Z,105.2
2023-01-21T04:00:06.145Z,114.8
2023-01-21T04:02:07.584Z,87.1
2023-01-21T04:04:08.938Z,116.9
2023-01-21T04:08:14.446Z,131.7
2023-01-21T04:10:16.090Z,119.7
2023-01-21T04:12:19.936Z,116.2
2023-01-21T04:16:22.765Z,123
2023-01-21T04:18:26.854Z,144.1
2023-01-21T04:20:28.285Z,144.8
2023-01-21T04:22:29.704Z,175.9
2023-01-21T04:24:34.787Z,143.9
2023-01-21T04:26:35.258Z,141.2
2023-01-21T04:28:36.708Z,148.5
2023-01-21T04:30:40.884Z,147.5
2023-01-21T04:36:47.866Z,158.4
2023-01-21T04:40:50.794Z,179.4
2023-01-21T04:42:54.948Z,178.9
2023-01-21T04:44:56.416Z,180.6
2023-01-21T04:46:57.877Z,211.2
2023-01-21T04:49:02.060Z,185.8
2023-01-21T04:51:03.528Z,174.3
2023-01-21T04:53:04.984Z,190.4
2023-01-21T04:55:09.178Z,210.8
2023-01-21T04:57:10.641Z,158.9
2023-01-21T05:01:16.394Z,165.8
2023-01-21T05:03:17.800Z,200.9
2023-01-21T05:05:19.319Z,207.7
2023-01-21T05:09:25.014Z,210.3
2023-01-21T05:18:38.387Z,193.6
2023-01-21T05:25:42.262Z,173.5
2023-01-21T05:27:43.754Z,152.4
2023-01-21T05:29:45.271Z,176
2023-01-21T05:31:49.524Z,172
2023-01-21T05:33:50.956Z,207.2
2023-01-21T05:35:52.479Z,190.1
2023-01-21T05:37:58.858Z,191.1
2023-01-21T05:39:58.192Z,194.6
2023-01-21T05:41:59.737Z,181
2023-01-21T05:44:03.937Z,203.7
2023-01-21T05:46:05.515Z,179.7
2023-01-21T05:48:06.998Z,207.4
2023-01-21T05:50:11.206Z,177.9
2023-01-21T05:52:12.747Z,172.3
2023-01-21T05:54:14.261Z,203.3
2023-01-21T05:56:18.457Z,184.7
2023-01-21T05:58:20.014Z,179.7
2023-01-21T06:00:21.526Z,157.9
2023-01-21T06:02:25.812Z,151.5
2023-01-21T06:06:28.823Z,163.8
2023-01-21T06:08:33.043Z,187.2
2023-01-21T06:14:40.327Z,171.2
2023-01-21T06:16:41.936Z,166.9
2023-01-21T06:18:43.385Z,150.4
2023-01-21T06:20:47.640Z,160
2023-01-21T06:24:50.653Z,138
2023-01-21T06:26:54.886Z,152.8
2023-01-21T06:30:58.064Z,158.3
2023-01-21T06:39:09.458Z,135.9
2023-01-21T06:45:16.783Z,178.8
2023-01-21T06:47:18.295Z,161.7
2023-01-21T06:49:19.844Z,167.9
2023-01-21T06:51:24.091Z,152.1
2023-01-21T06:53:25.595Z,181
2023-01-21T06:55:27.167Z,154
2023-01-21T06:57:31.360Z,155.8
2023-01-21T06:59:32.899Z,145.2
2023-01-21T07:01:34.530Z,188.5
2023-01-21T07:10:33.019Z,130.6
2023-01-21T07:14:36.059Z,155
2023-01-21T07:16:40.290Z,155.3
2023-01-21T07:18:41.814Z,135.6
2023-01-21T07:20:43.387Z,163.4
2023-01-21T07:22:47.555Z,138.6
2023-01-21T07:24:49.094Z,144.3
2023-01-21T07:26:50.634Z,165.6
2023-01-21T07:30:56.467Z,148.8
2023-01-21T07:32:57.957Z,142.4
2023-01-21T07:35:02.222Z,143.5
2023-01-21T07:41:09.413Z,114.9
2023-01-21T07:49:18.324Z,118.4
2023-01-21T07:53:24.071Z,147.4
2023-01-21T07:57:27.200Z,159.9
2023-01-21T07:59:31.407Z,124.3
2023-01-21T08:03:34.511Z,142.8
2023-01-21T08:05:38.741Z,129.5
2023-01-21T08:07:40.339Z,131.4
2023-01-21T08:15:49.181Z,146.3
2023-01-21T08:24:00.722Z,157.2
2023-01-21T08:26:02.283Z,132.4
2023-01-21T08:30:08.045Z,130.5
2023-01-21T08:32:09.601Z,139.5
2023-01-21T08:34:11.148Z,129.4
2023-01-21T08:36:15.378Z,113.9
2023-01-21T08:40:18.457Z,134.1
2023-01-21T08:42:22.707Z,137.7
2023-01-21T08:44:24.263Z,113.7
2023-01-21T08:48:30.048Z,127.2
2023-01-21T08:50:31.591Z,133.7
2023-01-21T08:52:33.160Z,123.8
2023-01-21T08:54:37.387Z,127.2
2023-01-21T08:56:38.959Z,160.7
2023-01-21T08:58:40.530Z,160.7
2023-01-21T09:02:46.347Z,131.4
2023-01-21T09:04:47.860Z,139.7
2023-01-21T09:06:52.109Z,153.8
2023-01-21T09:08:53.681Z,143.9
2023-01-21T09:10:55.224Z,139.7
2023-01-21T09:12:59.485Z,147
2023-01-21T09:15:01.054Z,146.6
2023-01-21T09:17:02.663Z,131.2
2023-01-21T09:19:07.006Z,126.7
2023-01-21T09:21:08.507Z,123.8
2023-01-21T09:23:10.028Z,119.3
2023-01-21T09:27:15.878Z,128.5
2023-01-21T09:31:21.812Z,123.3
2023-01-21T09:33:23.289Z,119.8
2023-01-21T09:35:24.869Z,127.7
2023-01-21T09:37:29.109Z,151.1
2023-01-21T09:41:32.263Z,118.1
2023-01-21T10:09:53.658Z,110.2
2023-01-21T10:16:07.143Z,124.8
2023-01-21T10:20:10.362Z,131.2
2023-01-21T10:22:20.665Z,139.6
2023-01-21T10:24:22.212Z,129.6
2023-01-21T10:28:28.055Z,135.8
2023-01-21T10:36:37.099Z,144.6
2023-01-21T10:40:43.024Z,136
2023-01-21T10:42:44.535Z,117.5
2023-01-21T10:44:46.131Z,136.3
2023-01-21T10:46:50.429Z,120.3
2023-01-21T10:48:52.014Z,120.1
2023-01-21T10:50:53.813Z,127.6
2023-01-21T10:52:57.888Z,128.3
2023-01-21T10:54:59.511Z,124.6
2023-01-21T10:57:01.100Z,134.1
2023-01-21T11:10:00.580Z,112
2023-01-21T11:17:13.945Z,119.9
2023-01-21T11:19:15.566Z,129.3
2023-01-21T11:29:41.408Z,126.6
2023-01-21T11:31:43.076Z,119.1
2023-01-21T11:56:13.632Z,90.3
2023-01-21T11:58:15.249Z,92.8
2023-01-21T12:02:21.400Z,61.5
2023-01-21T12:04:23.035Z,60.4
2023-01-21T12:27:33.831Z,24.4
2023-01-21T12:29:35.348Z,35.5
2023-01-21T12:31:37.103Z,33.9
2023-01-21T12:33:47.553Z,31.8
2023-01-21T12:35:49.284Z,35
2023-01-21T12:37:50.953Z,40.4
2023-01-21T12:40:01.472Z,34
2023-01-21T12:42:03.171Z,33.3
2023-01-21T12:44:04.901Z,26.9
2023-01-21T12:46:15.408Z,28
2023-01-21T12:50:18.806Z,27.9
2023-01-21T13:12:47.991Z,33.4
2023-01-21T13:14:49.741Z,32.4
2023-01-21T13:16:51.313Z,27.7
2023-01-21T13:18:55.723Z,34.4
2023-01-21T13:20:57.418Z,26.9
2023-01-21T13:22:59.090Z,30.9
2023-01-21T13:25:03.479Z,35.5
2023-01-21T13:29:06.828Z,32.7
2023-01-21T13:31:17.548Z,30.6
2023-01-21T13:33:19.002Z,36
2023-01-21T13:35:20.692Z,31.8
2023-01-21T13:37:31.181Z,46.7
2023-01-21T13:50:31.016Z,30.7
2023-01-21T13:52:32.701Z,27.7
2023-01-21T14:08:31.852Z,27.7
2023-01-21T14:10:33.544Z,27.8
2023-01-21T14:12:37.872Z,27.8
2023-01-21T14:14:39.607Z,35.9
2023-01-21T14:16:41.237Z,31
2023-01-21T14:18:45.535Z,30.7
2023-01-21T14:20:47.189Z,33.9
2023-01-21T14:22:48.897Z,33
2023-01-21T14:24:59.331Z,26
2023-01-21T14:27:00.946Z,39.1
2023-01-21T14:29:02.662Z,37
2023-01-21T14:31:13.177Z,27.9
2023-01-21T14:35:16.358Z,30.6
2023-01-21T14:37:27.938Z,37.1
2023-01-21T14:39:29.614Z,37.4
2023-01-21T14:41:31.229Z,35.8
2023-01-21T14:43:41.708Z,33.8
2023-01-21T14:45:43.487Z,39.1
2023-01-21T14:47:45.060Z,29.6
2023-01-21T14:56:44.149Z,28.7
2023-01-21T14:58:45.783Z,29.8
2023-01-21T15:00:47.522Z,34.9
2023-01-21T15:02:51.737Z,43
2023-01-21T15:04:53.377Z,43.4
2023-01-21T15:06:55.093Z,35.4
2023-01-21T15:08:59.357Z,34
2023-01-21T15:13:02.618Z,33.2
2023-01-21T15:15:06.917Z,31.5
2023-01-21T15:17:08.582Z,43.1
2023-01-21T15:19:10.212Z,44.5
2023-01-21T15:21:14.510Z,34.8
2023-01-21T15:23:16.150Z,29.4
2023-01-21T15:25:18.028Z,37.7
2023-01-21T15:27:22.121Z,28.1
2023-01-21T15:29:23.699Z,37.3
2023-01-21T15:31:25.417Z,31.9
2023-01-21T15:33:29.633Z,33.1
2023-01-21T15:35:31.236Z,31.2
2023-01-21T15:37:32.839Z,38.5
2023-01-21T15:39:37.172Z,41.1
2023-01-21T15:43:40.346Z,32.3
2023-01-21T15:45:44.707Z,30.5
2023-01-21T15:47:46.261Z,37.7
2023-01-21T15:51:52.138Z,34.9
2023-01-21T15:53:53.747Z,36.6
2023-01-21T15:55:55.338Z,25.5
2023-01-21T15:57:59.659Z,28.2
2023-01-21T16:00:01.242Z,32.2
2023-01-21T16:02:02.867Z,37.7
2023-01-21T16:04:07.100Z,40.7
2023-01-21T16:06:08.669Z,53
2023-01-21T16:08:10.266Z,39
2023-01-21T16:10:14.537Z,29.6
2023-01-21T16:12:16.142Z,40
2023-01-21T16:14:17.709Z,35
2023-01-21T16:16:22.036Z,43.9
2023-01-21T16:18:23.564Z,34
2023-01-21T16:20:25.164Z,43.1
2023-01-21T16:22:29.406Z,44.3
2023-01-21T16:24:31.029Z,36.4
2023-01-21T16:26:33.170Z,42.8
2023-01-21T16:28:36.852Z,33.5
2023-01-21T16:32:40.005Z,43.2
2023-01-21T16:34:44.335Z,44.3
2023-01-21T16:36:45.879Z,35.8
2023-01-21T16:38:47.447Z,48.2
2023-01-21T16:40:51.751Z,40.1
2023-01-21T16:42:53.336Z,36
2023-01-21T16:49:00.795Z,46.1
2023-01-21T16:53:06.661Z,34.2
2023-01-21T16:57:09.854Z,44.1
2023-01-21T16:59:14.107Z,36.4
2023-01-21T17:01:15.751Z,41.5
2023-01-21T17:05:21.533Z,55.2
2023-01-21T17:07:23.175Z,51.3
2023-01-21T17:09:24.727Z,38
2023-01-21T17:13:30.567Z,48.2
2023-01-21T17:15:32.206Z,47.4
2023-01-21T17:20:45.985Z,50.5
2023-01-21T17:22:47.503Z,42.2
2023-01-21T17:24:49.108Z,39.3
2023-01-21T17:26:53.337Z,36.4
2023-01-21T17:30:56.578Z,40.6
2023-01-21T17:36:09.261Z,36.6
2023-01-21T17:38:10.771Z,37.3
2023-01-21T17:40:12.334Z,43.8
2023-01-21T17:44:18.068Z,50.1
2023-01-21T17:46:19.650Z,51.1
2023-01-21T17:48:23.891Z,48
2023-01-21T17:50:25.332Z,55.3
2023-01-21T17:52:26.855Z,45.7
2023-01-21T17:54:31.087Z,50.6
2023-01-21T17:56:32.590Z,64
2023-01-21T17:58:34.095Z,42.7
2023-01-21T18:00:38.329Z,50.6
2023-01-21T18:04:41.388Z,36
2023-01-21T18:08:47.105Z,48.9
2023-01-21T18:10:48.618Z,57.8
2023-01-21T18:22:34.835Z,62.5
2023-01-21T18:24:36.295Z,58.1
2023-01-21T18:26:37.817Z,66.7
2023-01-21T18:28:42.022Z,56.4
2023-01-21T18:30:43.576Z,65.6
2023-01-21T18:32:45.032Z,69.8
2023-01-21T18:34:49.261Z,52.2
2023-01-21T18:36:50.744Z,62.8
2023-01-21T18:38:52.258Z,56.7
2023-01-21T18:40:56.521Z,69.4
2023-01-21T18:42:58.008Z,65.7
2023-01-21T18:44:59.518Z,65.1
2023-01-21T18:47:03.733Z,62.3
2023-01-21T18:49:05.277Z,58.5
2023-01-21T18:51:06.856Z,67.9
2023-01-21T18:56:12.405Z,57.4
2023-01-21T18:58:13.932Z,76.8
2023-01-21T19:00:15.456Z,62.4
2023-01-21T19:06:22.717Z,57
2023-01-21T19:08:26.899Z,64.2
2023-01-21T19:10:28.462Z,64.8
2023-01-21T19:12:29.931Z,56.1
2023-01-21T19:14:34.142Z,65.5
2023-01-21T19:16:35.793Z,48.5
2023-01-21T19:18:37.208Z,62.8
2023-01-21T19:20:41.417Z,63.7
2023-01-21T19:24:44.421Z,71.4
2023-01-21T19:26:48.599Z,65.8
2023-01-21T19:28:50.102Z,69.9
2023-01-21T19:30:51.681Z,70.2
2023-01-21T19:39:02.963Z,77.6
2023-01-21T19:41:04.451Z,57.2
2023-01-21T19:49:13.109Z,66.5
2023-01-21T19:53:18.720Z,38.8
2023-01-21T19:55:20.198Z,67.6
2023-01-21T19:57:24.373Z,54.5
2023-01-21T19:59:25.840Z,50.4
2023-01-21T20:03:31.487Z,56.5
2023-01-21T20:05:32.943Z,75.4
2023-01-21T20:07:34.410Z,65.1
2023-01-21T20:09:38.581Z,58.4
2023-01-21T20:11:40.043Z,56.3
2023-01-21T20:13:41.535Z,52.9
2023-01-21T20:19:48.612Z,56.3
2023-01-21T20:22:01.196Z,56.8
2023-01-21T20:25:55.652Z,46.1
2023-01-21T20:31:01.919Z,63.8
2023-01-21T20:35:04.826Z,65.8
2023-01-21T20:44:03.027Z,49.6
2023-01-21T20:46:04.476Z,64.3
2023-01-21T20:48:05.895Z,64.2
2023-01-21T20:50:10.053Z,62.3
2023-01-21T20:52:11.475Z,60.7
2023-01-21T20:54:12.918Z,52.6
2023-01-21T20:56:17.064Z,54.4
2023-01-21T20:58:18.529Z,53.7
2023-01-21T21:02:24.166Z,51.9
2023-01-21T21:12:34.027Z,61.5
2023-01-21T21:14:38.160Z,63.6
2023-01-21T21:20:45.210Z,60.2
2023-01-21T21:22:46.664Z,76.7
2023-01-21T21:24:48.111Z,72.9
2023-01-21T21:26:52.255Z,63.4
2023-01-21T21:28:53.703Z,71.7
2023-01-21T21:30:55.188Z,66.3
2023-01-21T21:32:59.321Z,67.6
2023-01-21T21:37:03.824Z,64.7
2023-01-21T21:43:12.496Z,65.4
2023-01-21T21:51:25.441Z,61.1
2023-01-21T21:53:26.829Z,65
2023-01-21T21:55:28.312Z,67.7
2023-01-21T21:59:33.923Z,59.4
2023-01-21T22:01:35.554Z,56.8
2023-01-21T22:03:39.573Z,68.5
2023-01-21T22:05:41.027Z,70.1
2023-01-21T22:07:42.483Z,68.2
2023-01-21T22:14:54.284Z,67.6
2023-01-21T22:16:55.819Z,66.5
2023-01-21T22:23:02.838Z,82.6
2023-01-21T22:31:14.297Z,63.4
2023-01-21T22:33:15.546Z,69.2
2023-01-21T22:39:22.710Z,60.5
2023-01-21T22:41:24.144Z,69.5
2023-01-21T22:43:28.270Z,62.2
2023-01-21T22:45:29.722Z,63.2
2023-01-21T22:47:31.177Z,74.7
2023-01-21T22:49:35.304Z,69.8
2023-01-21T22:51:36.788Z,66.3
2023-01-21T22:53:38.246Z,64.8
2023-01-21T22:55:42.369Z,67.2
2023-01-21T22:57:43.848Z,65.2
2023-01-21T22:59:45.296Z,63.6
2023-01-21T23:01:49.453Z,66.3
2023-01-21T23:03:50.877Z,71.1
2023-01-21T23:05:52.322Z,70.6
2023-01-21T23:07:56.462Z,69.9
2023-01-21T23:09:57.918Z,71.8
2023-01-21T23:11:59.354Z,69.1
2023-01-21T23:14:03.470Z,65.3
2023-01-21T23:16:04.989Z,77
2023-01-21T23:18:06.349Z,68.3
2023-01-21T23:20:10.496Z,76.2
2023-01-21T23:24:13.401Z,77.2
2023-01-21T23:26:17.539Z,86.7
2023-01-21T23:28:18.966Z,64.2
2023-01-21T23:30:20.437Z,85.6
2023-01-21T23:32:24.552Z,79.8
2023-01-21T23:36:27.442Z,77.4
2023-01-21T23:38:31.571Z,86.5
2023-01-21T23:40:33.019Z,70.9
2023-01-21T23:42:34.465Z,78.7
2023-01-21T23:44:38.609Z,68.2
2023-01-21T23:48:41.496Z,68.9
2023-01-21T23:50:45.691Z,77.4
2023-01-21T23:52:47.106Z,106.1
2023-01-21T23:54:48.508Z,77.6
2023-01-21T23:56:52.656Z,78.4
2023-01-21T23:58:54.111Z,96.4
